createdAt,value
2018-12-09T00:01:57.081Z,84.70
2018-12-09T00:04:26.454Z,85.75
2018-12-09T00:06:55.981Z,85.64
2018-12-09T00:09:25.311Z,84.82
2018-12-09T00:11:54.806Z,85.01
2018-12-09T00:14:24.279Z,84.12
2018-12-09T00:16:53.651Z,84.41
2018-12-09T00:19:23.776Z,83.63
2018-12-09T00:21:53.339Z,84.19
2018-12-09T00:24:22.658Z,84.05
2018-12-09T00:26:52.280Z,83.23
2018-12-09T00:29:22.411Z,83.07
2018-12-09T00:31:51.948Z,82.88
2018-12-09T00:34:23.158Z,82.69
2018-12-09T00:36:52.537Z,83.07
2018-12-09T00:39:22.030Z,82.25
2018-12-09T00:41:51.391Z,82.64
2018-12-09T00:44:20.886Z,82.92
2018-12-09T00:46:52.088Z,82.74
2018-12-09T00:49:24.235Z,82.17
2018-12-09T00:51:53.609Z,81.50
2018-12-09T00:54:22.852Z,82.19
2018-12-09T00:56:52.344Z,81.42
2018-12-09T00:59:21.681Z,82.42
2018-12-09T01:01:51.043Z,81.73
2018-12-09T01:04:22.044Z,81.72
2018-12-09T01:06:52.214Z,82.16
2018-12-09T01:09:21.713Z,81.76
2018-12-09T01:11:51.918Z,81.17
2018-12-09T01:14:21.415Z,81.81
2018-12-09T01:16:51.547Z,81.43
2018-12-09T01:19:21.673Z,80.67
2018-12-09T01:21:51.067Z,80.58
2018-12-09T01:24:20.377Z,81.27
2018-12-09T01:26:49.904Z,81.61
2018-12-09T01:29:19.347Z,81.32
2018-12-09T01:31:49.493Z,80.82
2018-12-09T01:34:20.934Z,80.95
2018-12-09T01:36:56.702Z,81.36
2018-12-09T01:39:26.028Z,82.15
2018-12-09T01:41:57.320Z,82.94
2018-12-09T01:44:26.737Z,82.76
2018-12-09T01:46:56.882Z,83.09
2018-12-09T01:49:26.241Z,83.23
2018-12-09T01:51:55.663Z,83.52
2018-12-09T01:54:24.979Z,83.83
2018-12-09T01:56:56.154Z,83.02
2018-12-09T01:59:27.233Z,83.24
2018-12-09T02:01:56.650Z,83.17
2018-12-09T02:04:26.973Z,83.32
2018-12-09T02:06:56.428Z,82.74
2018-12-09T02:09:26.830Z,82.58
2018-12-09T02:11:57.341Z,82.72
2018-12-09T02:14:27.031Z,82.14
2018-12-09T02:16:56.450Z,81.17
2018-12-09T02:19:26.971Z,81.26
2018-12-09T02:21:56.406Z,80.78
2018-12-09T02:24:25.896Z,80.96
2018-12-09T02:26:56.787Z,79.53
2018-12-09T02:29:26.102Z,79.04
2018-12-09T02:31:55.525Z,78.60
2018-12-09T02:34:25.076Z,79.12
2018-12-09T02:36:54.456Z,80.37
2018-12-09T02:39:23.891Z,80.42
2018-12-09T02:41:53.342Z,80.35
2018-12-09T02:44:23.139Z,80.41
2018-12-09T02:46:52.549Z,79.75
2018-12-09T02:49:21.907Z,80.07
2018-12-09T02:51:51.277Z,80.59
2018-12-09T02:54:20.564Z,80.32
2018-12-09T02:56:50.673Z,80.42
2018-12-09T02:59:20.099Z,80.30
2018-12-09T03:01:49.461Z,80.35
2018-12-09T03:04:18.898Z,80.99
2018-12-09T03:06:50.009Z,80.90
2018-12-09T03:09:20.600Z,81.23
2018-12-09T03:11:52.590Z,81.35
2018-12-09T03:14:21.968Z,81.46
2018-12-09T03:16:51.414Z,81.85
2018-12-09T03:19:20.837Z,82.67
2018-12-09T03:21:50.973Z,83.03
2018-12-09T03:24:20.535Z,84.06
2018-12-09T03:26:49.894Z,82.75
2018-12-09T03:29:19.339Z,83.41
2018-12-09T03:31:48.782Z,85.19
2018-12-09T03:34:18.383Z,85.98
2018-12-09T03:36:48.915Z,87.84
2018-12-09T03:39:18.632Z,88.64
2018-12-09T03:41:52.058Z,90.34
2018-12-09T03:44:23.124Z,89.96
2018-12-09T03:46:52.737Z,90.22
2018-12-09T03:49:22.771Z,90.11
2018-12-09T03:51:52.169Z,90.13
2018-12-09T03:54:24.094Z,91.64
2018-12-09T03:56:53.891Z,91.58
2018-12-09T03:59:24.930Z,93.22
2018-12-09T04:01:55.106Z,93.38
2018-12-09T04:04:24.430Z,93.03
2018-12-09T04:06:53.737Z,94.03
2018-12-09T04:09:23.069Z,94.23
2018-12-09T04:11:54.062Z,94.96
2018-12-09T04:14:23.478Z,94.52
2018-12-09T04:16:52.834Z,94.84
2018-12-09T04:19:22.394Z,93.84
2018-12-09T04:21:51.858Z,94.16
2018-12-09T04:24:21.143Z,93.74
2018-12-09T04:26:51.904Z,93.31
2018-12-09T04:29:21.810Z,93.00
2018-12-09T04:31:52.638Z,93.54
2018-12-09T04:34:21.973Z,94.17
2018-12-09T04:36:52.181Z,94.50
2018-12-09T04:39:22.175Z,96.01
2018-12-09T04:41:53.327Z,95.86
2018-12-09T04:44:22.721Z,96.95
2018-12-09T04:46:52.081Z,97.48
2018-12-09T04:49:21.483Z,98.08
2018-12-09T04:51:55.741Z,99.18
2018-12-09T04:54:26.388Z,98.46
2018-12-09T04:56:55.735Z,97.67
2018-12-09T04:59:26.303Z,97.61
2018-12-09T05:01:55.785Z,96.83
2018-12-09T05:04:26.688Z,97.61
2018-12-09T05:35:49.990Z,99.15
2018-12-09T05:38:19.360Z,99.37
2018-12-09T05:40:49.752Z,98.54
2018-12-09T05:43:19.264Z,98.49
2018-12-09T05:45:50.128Z,97.25
2018-12-09T05:48:19.576Z,97.40
2018-12-09T05:51:21.704Z,97.33
2018-12-09T05:53:51.190Z,97.07
2018-12-09T05:56:20.610Z,97.19
2018-12-09T05:58:50.706Z,96.83
2018-12-09T06:01:20.100Z,96.04
2018-12-09T06:03:49.444Z,96.21
2018-12-09T06:06:20.113Z,96.62
2018-12-09T06:08:49.427Z,96.07
2018-12-09T06:11:19.240Z,96.35
2018-12-09T06:13:49.280Z,95.53
2018-12-09T06:16:19.328Z,96.18
2018-12-09T06:18:50.472Z,95.02
2018-12-09T06:21:20.258Z,94.56
2018-12-09T06:23:50.704Z,93.91
2018-12-09T06:26:20.092Z,93.55
2018-12-09T06:28:49.464Z,91.14
2018-12-09T06:31:20.557Z,90.31
2018-12-09T06:36:40.574Z,89.65
2018-12-09T06:39:09.677Z,90.53
2018-12-09T06:41:38.760Z,89.39
2018-12-09T06:44:07.873Z,88.73
2018-12-09T06:46:36.982Z,88.67
2018-12-09T06:49:06.064Z,89.68
2018-12-09T06:51:35.660Z,89.89
2018-12-09T06:54:04.776Z,89.46
2018-12-09T06:56:33.886Z,89.14
2018-12-09T06:59:03.054Z,89.86
2018-12-09T07:01:32.402Z,90.74
2018-12-09T07:04:01.897Z,91.37
2018-12-09T07:06:30.999Z,91.23
2018-12-09T07:09:00.167Z,91.39
2018-12-09T07:11:29.511Z,91.65
2018-12-09T07:13:58.553Z,91.94
2018-12-09T07:16:27.793Z,91.67
2018-12-09T07:18:57.052Z,91.00
2018-12-09T07:21:26.240Z,91.30
2018-12-09T07:23:55.375Z,91.35
2018-12-09T07:26:24.944Z,91.47
2018-12-09T07:28:54.048Z,91.22
2018-12-09T07:31:23.218Z,90.73
2018-12-09T07:33:52.357Z,91.25
2018-12-09T07:36:21.459Z,91.61
2018-12-09T07:38:51.073Z,90.91
2018-12-09T07:41:20.175Z,91.01
2018-12-09T07:43:50.058Z,91.87
2018-12-09T07:46:20.061Z,91.60
2018-12-09T07:48:50.005Z,91.76
2018-12-09T07:51:20.057Z,91.94
2018-12-09T07:53:50.258Z,91.89
2018-12-09T07:56:20.107Z,91.98
2018-12-09T08:01:29.118Z,93.10
2018-12-09T08:03:58.533Z,93.21
2018-12-09T08:06:27.889Z,93.20
2018-12-09T08:08:57.382Z,92.96
2018-12-09T08:11:28.419Z,93.62
2018-12-09T08:13:58.587Z,93.38
2018-12-09T08:16:28.780Z,93.08
2018-12-09T08:18:58.349Z,92.95
2018-12-09T08:21:27.791Z,93.42
2018-12-09T08:23:57.161Z,93.72
2018-12-09T08:26:28.223Z,93.66
2018-12-09T08:28:57.589Z,93.27
2018-12-09T08:31:27.066Z,93.93
2018-12-09T08:33:56.463Z,93.60
2018-12-09T08:36:25.935Z,94.24
2018-12-09T08:38:57.324Z,95.54
2018-12-09T08:41:28.422Z,96.49
2018-12-09T08:43:57.875Z,96.52
2018-12-09T08:46:27.337Z,97.84
2018-12-09T08:48:58.561Z,98.94
2018-12-09T08:51:27.985Z,98.49
2018-12-09T08:53:57.441Z,98.80
2018-12-09T08:56:26.831Z,99.29
2018-12-09T08:58:56.243Z,99.81
2018-12-09T09:01:26.530Z,100.00
2018-12-09T09:03:58.382Z,100.00
2018-12-09T09:06:27.789Z,99.92
2018-12-09T09:08:57.151Z,100.00
2018-12-09T09:11:26.549Z,100.00
2018-12-09T09:13:55.965Z,100.00
2018-12-09T09:16:27.107Z,100.00
2018-12-09T09:18:56.529Z,100.00
2018-12-09T09:21:25.933Z,100.00
2018-12-09T09:23:55.267Z,99.76
2018-12-09T09:26:24.669Z,99.62
2018-12-09T09:28:54.031Z,99.95
2018-12-09T09:31:23.488Z,99.71
2018-12-09T09:33:52.990Z,99.23
2018-12-09T09:36:22.566Z,99.02
2018-12-09T09:38:52.221Z,98.70
2018-12-09T09:41:23.034Z,98.43
2018-12-09T09:43:53.378Z,98.52
2018-12-09T09:46:23.171Z,98.41
2018-12-09T09:48:52.636Z,97.65
2018-12-09T09:51:23.223Z,97.73
2018-12-09T09:53:53.756Z,97.70
2018-12-09T09:56:23.093Z,97.57
2018-12-09T09:58:52.563Z,98.58
2018-12-09T10:01:23.964Z,98.06
2018-12-09T10:03:57.228Z,98.87
2018-12-09T10:06:26.654Z,98.43
2018-12-09T10:08:55.968Z,98.88
2018-12-09T10:11:25.361Z,99.11
2018-12-09T10:13:54.850Z,99.75
2018-12-09T10:16:24.179Z,98.78
2018-12-09T10:18:53.561Z,99.17
2018-12-09T10:21:23.069Z,98.75
2018-12-09T10:23:53.792Z,98.90
2018-12-09T10:26:23.319Z,97.93
2018-12-09T10:28:53.761Z,97.76
2018-12-09T10:31:23.851Z,98.67
2018-12-09T10:33:53.762Z,97.07
2018-12-09T10:36:23.514Z,97.49
2018-12-09T10:38:53.004Z,97.38
2018-12-09T10:41:22.484Z,96.94
2018-12-09T10:43:52.565Z,96.31
2018-12-09T10:46:22.636Z,96.02
2018-12-09T10:48:54.497Z,95.34
2018-12-09T10:51:23.988Z,95.07
2018-12-09T10:53:54.219Z,94.04
2018-12-09T10:56:24.060Z,93.80
2018-12-09T10:58:54.371Z,93.16
2018-12-09T11:01:47.504Z,92.18
2018-12-09T11:04:17.827Z,92.23
2018-12-09T11:06:48.927Z,92.42
2018-12-09T11:09:18.491Z,92.87
2018-12-09T11:11:48.655Z,92.13
2018-12-09T11:17:06.975Z,93.57
2018-12-09T11:19:36.401Z,94.60
2018-12-09T11:22:07.427Z,95.23
2018-12-09T11:24:37.608Z,95.53
2018-12-09T11:27:08.874Z,96.84
2018-12-09T11:29:38.584Z,96.24
2018-12-09T11:32:08.724Z,97.21
2018-12-09T11:34:38.122Z,97.63
2018-12-09T11:37:08.327Z,97.79
2018-12-09T11:39:39.066Z,99.42
2018-12-09T11:42:08.718Z,100.00
2018-12-09T11:44:38.296Z,100.00
2018-12-09T11:47:10.508Z,100.00
2018-12-09T11:49:39.798Z,100.00
2018-12-09T11:52:10.786Z,100.00
2018-12-09T11:54:40.910Z,100.00
2018-12-09T11:57:11.147Z,100.00
2018-12-09T11:59:41.572Z,100.00
2018-12-09T12:02:11.136Z,100.00
2018-12-09T12:04:41.437Z,100.00
2018-12-09T12:07:10.866Z,100.00
2018-12-09T12:09:40.346Z,100.00
2018-12-09T12:12:09.801Z,100.00
2018-12-09T12:14:39.311Z,100.00
2018-12-09T12:17:08.725Z,100.00
2018-12-09T12:19:40.342Z,100.00
2018-12-09T12:22:11.404Z,100.00
2018-12-09T12:24:41.013Z,100.00
2018-12-09T12:27:10.458Z,100.00
2018-12-09T12:29:41.455Z,100.00
2018-12-09T12:32:11.667Z,100.00
2018-12-09T12:34:41.815Z,100.00
2018-12-09T12:37:11.201Z,100.00
2018-12-09T12:39:40.601Z,100.00
2018-12-09T12:42:10.075Z,100.00
2018-12-09T12:44:41.408Z,100.00
2018-12-09T12:47:11.654Z,100.00
2018-12-09T12:49:44.053Z,100.00
2018-12-09T12:52:15.940Z,100.00
2018-12-09T12:54:45.607Z,100.00
2018-12-09T12:57:17.409Z,100.00
2018-12-09T12:59:46.896Z,100.00
2018-12-09T13:02:18.499Z,100.00
2018-12-09T13:04:48.055Z,100.00
2018-12-09T13:07:17.486Z,100.00
2018-12-09T13:09:46.970Z,100.00
2018-12-09T13:12:16.493Z,100.00
2018-12-09T13:14:48.127Z,100.00
2018-12-09T13:17:17.527Z,100.00
2018-12-09T13:19:46.983Z,100.00
2018-12-09T13:22:19.148Z,100.00
2018-12-09T13:24:49.240Z,100.00
2018-12-09T13:27:20.008Z,100.00
2018-12-09T13:29:49.417Z,100.00
2018-12-09T13:32:19.324Z,100.00
2018-12-09T13:34:48.726Z,100.00
2018-12-09T13:37:18.055Z,100.00
2018-12-09T13:39:47.510Z,100.00
2018-12-09T13:42:18.762Z,100.00
2018-12-09T13:44:48.765Z,100.00
2018-12-09T13:47:18.255Z,100.00
2018-12-09T13:49:47.677Z,100.00
2018-12-09T13:52:17.275Z,100.00
2018-12-09T13:54:46.812Z,100.00
2018-12-09T13:57:16.265Z,100.00
2018-12-09T13:59:45.743Z,100.00
2018-12-09T14:02:15.990Z,100.00
2018-12-09T14:04:46.298Z,100.00
2018-12-09T14:07:17.595Z,100.00
2018-12-09T14:09:47.369Z,100.00
2018-12-09T14:12:16.931Z,100.00
2018-12-09T14:14:46.824Z,100.00
2018-12-09T14:17:16.413Z,100.00
2018-12-09T14:19:45.945Z,100.00
2018-12-09T14:22:15.821Z,100.00
2018-12-09T14:24:45.470Z,100.00
2018-12-09T14:27:15.712Z,100.00
2018-12-09T14:29:45.939Z,100.00
2018-12-09T14:32:15.807Z,100.00
2018-12-09T14:34:45.273Z,100.00
2018-12-09T14:37:15.077Z,100.00
2018-12-09T14:39:46.417Z,100.00
2018-12-09T14:42:16.575Z,100.00
2018-12-09T14:44:47.709Z,100.00
2018-12-09T14:47:20.909Z,100.00
2018-12-09T14:49:51.104Z,100.00
2018-12-09T14:52:20.825Z,100.00
2018-12-09T14:54:51.278Z,100.00
2018-12-09T14:57:20.899Z,100.00
2018-12-09T14:59:53.891Z,100.00
2018-12-09T15:02:25.009Z,100.00
2018-12-09T15:04:55.842Z,100.00
2018-12-09T15:07:25.453Z,100.00
2018-12-09T15:09:57.756Z,100.00
2018-12-09T15:12:28.283Z,100.00
2018-12-09T15:14:58.149Z,100.00
2018-12-09T15:17:28.031Z,100.00
2018-12-09T15:19:59.126Z,100.00
2018-12-09T15:22:28.752Z,100.00
2018-12-09T15:24:58.314Z,100.00
2018-12-09T15:27:27.975Z,100.00
2018-12-09T15:29:59.166Z,99.71
2018-12-09T15:32:29.870Z,99.64
2018-12-09T15:34:59.406Z,99.74
2018-12-09T15:37:29.720Z,99.27
2018-12-09T15:39:59.463Z,98.60
2018-12-09T15:42:31.605Z,98.74
2018-12-09T15:45:01.830Z,98.61
2018-12-09T15:47:31.449Z,98.89
2018-12-09T15:50:01.743Z,99.79
2018-12-09T15:52:31.742Z,98.83
2018-12-09T15:55:03.406Z,99.01
2018-12-09T15:57:32.966Z,98.85
2018-12-09T16:00:03.312Z,97.73
2018-12-09T16:02:33.354Z,98.77
2018-12-09T16:05:02.970Z,98.59
2018-12-09T16:07:32.558Z,98.87
2018-12-09T16:10:02.104Z,98.66
2018-12-09T16:12:31.526Z,99.27
2018-12-09T16:15:01.671Z,99.21
2018-12-09T16:17:31.178Z,99.37
2018-12-09T16:20:01.317Z,99.66
2018-12-09T16:22:31.504Z,99.41
2018-12-09T16:25:01.707Z,98.57
2018-12-09T16:27:31.059Z,99.49
2018-12-09T16:30:01.445Z,99.30
2018-12-09T16:32:30.733Z,99.22
2018-12-09T16:35:00.068Z,99.40
2018-12-09T16:37:30.325Z,98.90
2018-12-09T16:39:59.689Z,98.75
2018-12-09T16:42:29.898Z,99.51
2018-12-09T16:44:59.498Z,98.95
2018-12-09T16:47:29.051Z,99.00
2018-12-09T16:50:00.044Z,98.71
2018-12-09T16:52:30.973Z,98.94
2018-12-09T16:55:00.510Z,99.18
2018-12-09T16:57:30.322Z,99.82
2018-12-09T16:59:59.892Z,99.52
2018-12-09T17:02:29.382Z,99.67
2018-12-09T17:04:59.882Z,99.75
2018-12-09T17:07:29.430Z,99.02
2018-12-09T17:10:02.053Z,98.93
2018-12-09T17:12:31.601Z,99.01
2018-12-09T17:15:01.115Z,99.59
2018-12-09T17:17:30.862Z,98.55
2018-12-09T17:20:06.306Z,97.76
2018-12-09T17:22:34.672Z,97.68
2018-12-09T17:25:05.901Z,98.70
2018-12-09T17:27:36.174Z,97.80
2018-12-09T17:30:06.255Z,98.16
2018-12-09T17:32:36.693Z,99.05
2018-12-09T17:35:07.245Z,98.66
2018-12-09T17:37:36.867Z,99.01
2018-12-09T17:40:07.991Z,98.50
2018-12-09T17:42:37.457Z,97.80
2018-12-09T17:45:07.173Z,98.01
2018-12-09T17:47:36.533Z,98.34
2018-12-09T17:50:06.425Z,98.82
2018-12-09T17:55:56.396Z,99.24
2018-12-09T17:58:25.820Z,99.57
2018-12-09T18:00:55.396Z,99.17
2018-12-09T18:03:24.799Z,99.92
2018-12-09T18:05:55.380Z,100.00
2018-12-09T18:08:24.850Z,100.00
2018-12-09T18:10:54.264Z,100.00
2018-12-09T18:13:23.795Z,99.83
2018-12-09T18:15:58.493Z,100.00
2018-12-09T18:18:31.571Z,100.00
2018-12-09T18:21:01.779Z,100.00
2018-12-09T18:23:33.122Z,100.00
2018-12-09T18:26:02.494Z,100.00
2018-12-09T18:28:31.896Z,100.00
2018-12-09T18:31:01.424Z,100.00
2018-12-09T18:33:31.011Z,100.00
2018-12-09T18:36:04.091Z,100.00
2018-12-09T18:38:33.554Z,100.00
2018-12-09T18:41:05.518Z,100.00
2018-12-09T18:43:38.423Z,100.00
2018-12-09T18:46:10.673Z,99.65
2018-12-09T18:48:40.181Z,99.48
2018-12-09T19:33:26.967Z,100.00
2018-12-09T19:35:57.506Z,100.00
2018-12-09T19:38:26.871Z,100.00
2018-12-09T19:40:56.389Z,100.00
2018-12-09T19:43:25.847Z,100.00
2018-12-09T19:45:55.343Z,100.00
2018-12-09T19:48:24.856Z,100.00
2018-12-09T19:50:54.369Z,100.00
2018-12-09T19:53:24.803Z,100.00
2018-12-09T19:55:54.324Z,100.00
2018-12-09T19:58:23.852Z,100.00
2018-12-09T20:00:57.990Z,100.00
2018-12-09T20:03:27.509Z,100.00
2018-12-09T20:05:57.028Z,100.00
2018-12-09T20:08:26.527Z,100.00
2018-12-09T20:10:56.187Z,100.00
2018-12-09T20:13:25.683Z,100.00
2018-12-09T20:15:55.213Z,100.00
2018-12-09T20:18:24.598Z,100.00
2018-12-09T20:20:56.238Z,100.00
2018-12-09T20:23:25.961Z,100.00
2018-12-09T20:25:55.584Z,100.00
2018-12-09T20:28:25.540Z,100.00
2018-12-09T20:30:55.188Z,100.00
2018-12-09T20:33:26.116Z,100.00
2018-12-09T20:35:55.839Z,100.00
2018-12-09T20:38:25.350Z,100.00
2018-12-09T20:40:54.969Z,100.00
2018-12-09T20:43:24.503Z,100.00
2018-12-09T20:45:53.877Z,100.00
2018-12-09T20:48:23.273Z,100.00
2018-12-09T20:50:54.532Z,100.00
2018-12-09T20:53:23.907Z,100.00
2018-12-09T20:55:53.481Z,100.00
2018-12-09T20:58:23.027Z,100.00
2018-12-09T21:00:52.431Z,100.00
2018-12-09T21:03:22.233Z,100.00
2018-12-09T21:05:51.747Z,100.00
2018-12-09T21:08:21.181Z,100.00
2018-12-09T21:10:51.961Z,100.00
2018-12-09T21:13:21.486Z,100.00
2018-12-09T21:15:50.916Z,100.00
2018-12-09T21:18:20.438Z,100.00
2018-12-09T21:20:51.480Z,100.00
2018-12-09T21:23:21.249Z,100.00
2018-12-09T21:25:50.697Z,100.00
2018-12-09T21:28:22.044Z,100.00
2018-12-09T21:30:51.400Z,100.00
2018-12-09T21:33:21.565Z,100.00
2018-12-09T21:35:51.046Z,100.00
2018-12-09T21:38:20.563Z,100.00
2018-12-09T21:40:49.956Z,100.00
2018-12-09T21:43:19.435Z,100.00
2018-12-09T21:45:49.603Z,100.00
2018-12-09T21:48:18.973Z,100.00
2018-12-09T21:50:49.148Z,100.00
2018-12-09T21:53:18.550Z,100.00
2018-12-09T21:55:50.102Z,100.00
2018-12-09T21:58:24.248Z,100.00
2018-12-09T22:00:53.546Z,100.00
2018-12-09T22:03:23.667Z,100.00
2018-12-09T22:05:53.060Z,100.00
2018-12-09T22:08:26.109Z,100.00
2018-12-09T22:10:55.534Z,100.00
2018-12-09T22:13:24.817Z,100.00
2018-12-09T22:15:56.468Z,100.00
2018-12-09T22:18:25.747Z,100.00
2018-12-09T22:20:55.212Z,100.00
2018-12-09T22:23:27.976Z,100.00
2018-12-09T22:25:59.014Z,100.00
2018-12-09T22:28:28.308Z,100.00
2018-12-09T22:30:58.346Z,100.00
2018-12-09T22:33:28.453Z,100.00
2018-12-09T22:35:59.526Z,100.00
2018-12-09T22:38:28.897Z,100.00
2018-12-09T22:40:58.200Z,100.00
2018-12-09T22:43:27.544Z,100.00
2018-12-09T22:45:56.994Z,100.00
2018-12-09T22:48:27.011Z,100.00
2018-12-09T22:50:57.065Z,100.00
2018-12-09T22:53:27.246Z,100.00
2018-12-09T22:55:57.208Z,100.00
2018-12-09T22:58:26.530Z,100.00
2018-12-09T23:01:01.118Z,100.00
2018-12-09T23:03:31.506Z,100.00
2018-12-09T23:06:02.012Z,100.00
2018-12-09T23:08:31.893Z,100.00
2018-12-09T23:11:02.245Z,100.00
2018-12-09T23:13:34.790Z,100.00
2018-12-09T23:16:05.086Z,100.00
2018-12-09T23:18:34.510Z,100.00
2018-12-09T23:21:05.728Z,100.00
2018-12-09T23:23:35.095Z,99.91
2018-12-09T23:26:07.123Z,100.00
2018-12-09T23:28:38.073Z,100.00
2018-12-09T23:31:07.436Z,100.00
2018-12-09T23:33:36.786Z,100.00
2018-12-09T23:36:06.144Z,100.00
2018-12-09T23:38:35.540Z,100.00
2018-12-09T23:41:04.869Z,100.00
2018-12-09T23:43:34.201Z,100.00
2018-12-09T23:46:03.673Z,100.00
2018-12-09T23:48:34.094Z,100.00
2018-12-09T23:51:03.543Z,100.00
2018-12-09T23:53:32.926Z,100.00
2018-12-09T23:56:03.123Z,100.00
2018-12-09T23:58:32.739Z,100.00
